Paris, TN (38242)

9:52 AM CDT on May 27, 2017 (GMT -0500)
PriWeather | | Change Station
Active Advisory: Severe Thunderstorm Watch

Elev 500 ft 36.28 °N, 88.30 °W | Updated 9 minutes ago

Partly Cloudy
Partly Cloudy
71.4 °F
Feels Like 71.4 °F
N
3.0
Wind Variable Wind from NW
Gusts 4.0 mph

Today
High -- | Low -- °F
--% Chance of Precip.
Yesterday
High -- | Low -- °F
Precip. -- in
Pressure 29.91 in
Visibility 10.0 miles
Clouds Few 1200 ft
Dew Point 71 °F
Humidity 97%
Rainfall 0.16 in
Snow Depth Not available.
5:39 AM 8:02 PM
Waxing Crescent, 5% visible
METAR KCEY 271435Z AUTO 29010KT 10SM FEW012 23/21 A2991 RMK AO1
Pressure 29.91 in
Visibility 10.0 miles
Clouds Few 1200 ft
Dew Point 71 °F
Humidity 97%
Rainfall 0.16 in
Snow Depth Not available.
5:39 AM 8:02 PM
Waxing Crescent, 5% visible
METAR KCEY 271435Z AUTO 29010KT 10SM FEW012 23/21 A2991 RMK AO1

Get Your Daily Forecast Email!

Thanks for signing up!

Be on the lookout for a verification email in your inbox.

You'll start receiving severe weather alerts in your inbox..

×

10-Day Weather Forecast

Almanac

Astronomy

May. 27, 2017 Rise Set
Actual Time
Civil Twilight
Nautical Twilight
Astronomical Twilight
Moon
Length of Visible Light
Length of Day
Tomorrow will be .
, % of the Moon is Illuminated

Today's Extremes

State Highs State Lows

Community

WunderPhotos

Category 6

Welcome to Category 6. This is the collective home for Weather Underground's featured writeups by Dr. Jeff Masters (right), Bob Henson (left), Chris Burt, and other regular contributors.

Nearby

Air Quality

  Air Quality AQ Index Pollutant
Not available.

Snow Depth

Station Depth Elevation

Earthquake Activity

City Distance Mag. Time & Date
Minimum magnitude displayed is 2.5.

Coastal Water Temperatures

Place Temperature

Stations

Nearby Weather Stations

Station Location Temp. Windchill Dew Point Humidity Wind Precip. Elev Updated Type
                   

Watches & Warnings

Severe Thunderstorm Watch
Issued: 9:43 AM CDT May. 27, 2017 – National Weather Service

Severe Thunderstorm Watch 274 remains in effect until 1200 PM CDT

TN
. Tennessee counties included are

Benton Carroll Chester
Decatur Hardin Henderson
Henry McNairy